createdAt,value
2023-08-15T00:02:43.375Z,88.94
2023-08-15T00:05:45.516Z,88.70
2023-08-15T00:08:54.424Z,88.34
2023-08-15T00:11:56.393Z,88.08
2023-08-15T00:14:58.519Z,88.01
2023-08-15T00:18:00.566Z,88.87
2023-08-15T00:21:02.671Z,89.67
2023-08-15T00:24:05.181Z,88.94
2023-08-15T00:27:07.778Z,88.31
2023-08-15T00:30:10.153Z,88.45
2023-08-15T00:33:15.064Z,89.21
2023-08-15T00:36:17.206Z,88.55
2023-08-15T00:39:19.630Z,89.01
2023-08-15T00:42:21.679Z,89.26
2023-08-15T00:45:23.711Z,88.61
2023-08-15T00:48:31.028Z,88.56
2023-08-15T00:51:33.574Z,88.48
2023-08-15T00:54:36.258Z,89.17
2023-08-15T00:57:38.446Z,88.60
2023-08-15T01:00:41.178Z,89.02
2023-08-15T01:03:43.428Z,88.53
2023-08-15T01:06:45.578Z,88.56
2023-08-15T01:09:47.774Z,88.35
2023-08-15T01:12:58.679Z,88.39
2023-08-15T01:16:05.382Z,88.64
2023-08-15T01:19:26.298Z,88.68
2023-08-15T01:22:30.200Z,89.21
2023-08-15T01:25:33.525Z,89.42
2023-08-15T01:28:35.590Z,91.12
2023-08-15T01:31:45.118Z,92.96
2023-08-15T01:34:56.066Z,91.94
2023-08-15T01:38:22.620Z,91.90
2023-08-15T01:41:26.484Z,91.72
2023-08-15T01:44:30.619Z,92.61
2023-08-15T01:47:33.620Z,91.55
2023-08-15T01:50:35.704Z,91.79
2023-08-15T01:53:38.648Z,92.09
2023-08-15T01:56:40.689Z,91.67
2023-08-15T01:59:45.065Z,92.39
2023-08-15T02:02:47.131Z,92.50
2023-08-15T02:05:49.324Z,92.60
2023-08-15T02:08:51.376Z,92.22
2023-08-15T02:11:54.007Z,92.16
2023-08-15T02:14:55.936Z,92.87
2023-08-15T02:17:58.062Z,91.84
2023-08-15T02:21:00.224Z,92.56
2023-08-15T02:24:02.331Z,92.77
2023-08-15T02:27:22.854Z,92.17
2023-08-15T02:30:25.097Z,93.70
2023-08-15T02:33:27.256Z,94.19
2023-08-15T02:36:29.400Z,95.07
2023-08-15T02:39:31.640Z,94.38
2023-08-15T02:42:34.268Z,94.78
2023-08-15T02:45:36.509Z,95.42
2023-08-15T02:48:38.641Z,95.12
2023-08-15T02:51:40.772Z,94.78
2023-08-15T02:54:42.935Z,94.92
2023-08-15T02:57:45.118Z,95.31
2023-08-15T03:00:47.412Z,95.22
2023-08-15T03:03:49.527Z,95.23
2023-08-15T03:06:51.652Z,94.38
2023-08-15T03:09:53.771Z,94.64
2023-08-15T03:12:55.953Z,94.32
2023-08-15T03:15:59.055Z,94.43
2023-08-15T03:19:01.199Z,94.86
2023-08-15T03:22:03.253Z,94.69
2023-08-15T03:25:05.777Z,94.16
2023-08-15T03:28:08.177Z,94.43
2023-08-15T03:31:10.800Z,94.72
2023-08-15T03:34:13.028Z,95.52
2023-08-15T03:37:15.185Z,95.05
2023-08-15T03:40:17.407Z,94.80
2023-08-15T03:43:19.541Z,95.06
2023-08-15T03:46:21.897Z,94.92
2023-08-15T03:49:24.082Z,95.03
2023-08-15T03:52:26.385Z,95.14
2023-08-15T03:55:29.752Z,95.54
2023-08-15T03:58:31.817Z,95.60
2023-08-15T04:01:34.197Z,95.63
2023-08-15T04:04:36.267Z,95.73
2023-08-15T04:07:39.108Z,95.96
2023-08-15T04:10:41.544Z,96.08
2023-08-15T04:13:43.681Z,95.79
2023-08-15T04:16:48.893Z,95.92
2023-08-15T04:19:51.689Z,95.42
2023-08-15T04:22:54.101Z,95.40
2023-08-15T04:25:57.142Z,95.85
2023-08-15T04:28:59.228Z,95.71
2023-08-15T04:32:01.458Z,95.58
2023-08-15T04:35:03.733Z,95.53
2023-08-15T04:38:05.920Z,95.97
2023-08-15T04:41:08.134Z,95.08
2023-08-15T04:44:11.683Z,95.10
2023-08-15T04:47:13.759Z,94.93
2023-08-15T04:50:15.844Z,95.73
2023-08-15T04:53:17.962Z,95.95
2023-08-15T04:56:20.128Z,95.79
2023-08-15T04:59:22.384Z,95.85
2023-08-15T05:02:24.447Z,95.46
2023-08-15T05:05:26.905Z,94.42
2023-08-15T05:08:29.244Z,94.98
2023-08-15T05:11:31.381Z,94.72
2023-08-15T05:14:33.520Z,94.42
2023-08-15T05:17:36.416Z,94.82
2023-08-15T05:20:38.739Z,94.63
2023-08-15T05:23:40.888Z,94.16
2023-08-15T05:26:43.056Z,93.67
2023-08-15T05:29:45.173Z,93.36
2023-08-15T05:32:47.426Z,93.24
2023-08-15T05:35:49.844Z,92.93
2023-08-15T05:38:51.896Z,93.43
2023-08-15T05:41:53.995Z,92.66
2023-08-15T05:44:56.267Z,91.99
2023-08-15T05:47:59.809Z,91.40
2023-08-15T05:51:01.979Z,89.50
2023-08-15T05:54:04.149Z,87.54
2023-08-15T05:57:06.385Z,85.21
2023-08-15T06:00:09.910Z,83.39
2023-08-15T06:03:12.554Z,81.39
2023-08-15T06:06:14.958Z,79.69
2023-08-15T06:09:18.648Z,77.08
2023-08-15T06:12:20.956Z,76.19
2023-08-15T06:15:23.206Z,74.80
2023-08-15T06:18:26.186Z,73.03
2023-08-15T06:21:28.296Z,70.80
2023-08-15T06:24:30.451Z,70.82
2023-08-15T06:27:32.713Z,69.65
2023-08-15T06:30:34.905Z,69.44
2023-08-15T06:33:37.032Z,69.26
2023-08-15T06:36:39.235Z,67.79
2023-08-15T06:39:41.337Z,65.64
2023-08-15T06:42:43.376Z,64.40
2023-08-15T06:45:45.540Z,63.57
2023-08-15T06:48:47.678Z,62.35
2023-08-15T06:51:49.860Z,61.89
2023-08-15T06:54:51.951Z,61.08
2023-08-15T06:57:55.134Z,60.41
2023-08-15T07:00:57.148Z,59.48
2023-08-15T07:03:59.624Z,59.13
2023-08-15T07:07:01.985Z,58.22
2023-08-15T07:10:07.929Z,58.87
2023-08-15T07:13:10.162Z,57.62
2023-08-15T07:16:12.307Z,56.11
2023-08-15T07:19:14.481Z,57.23
2023-08-15T07:22:16.643Z,55.27
2023-08-15T07:25:18.927Z,55.58
2023-08-15T07:28:21.035Z,53.47
2023-08-15T07:31:23.214Z,52.43
2023-08-15T07:34:25.398Z,50.77
2023-08-15T07:37:27.942Z,49.83
2023-08-15T07:40:30.126Z,49.94
2023-08-15T07:43:32.728Z,49.42
2023-08-15T07:46:34.873Z,48.37
2023-08-15T07:49:39.204Z,47.52
2023-08-15T07:52:42.324Z,46.22
2023-08-15T07:55:44.504Z,46.36
2023-08-15T07:58:46.662Z,45.11
2023-08-15T08:01:49.587Z,44.93
2023-08-15T08:04:52.181Z,43.93
2023-08-15T08:07:54.253Z,45.20
2023-08-15T08:10:56.421Z,44.08
2023-08-15T08:13:58.723Z,44.56
2023-08-15T08:17:00.790Z,45.82
2023-08-15T08:20:05.807Z,45.07
2023-08-15T08:23:10.049Z,43.65
2023-08-15T08:26:12.104Z,44.38
2023-08-15T08:29:14.346Z,43.36
2023-08-15T08:32:16.464Z,42.83
2023-08-15T08:35:18.945Z,42.22
2023-08-15T08:38:21.103Z,43.06
2023-08-15T08:41:23.534Z,41.79
2023-08-15T08:44:27.537Z,40.02
2023-08-15T08:47:32.459Z,40.30
2023-08-15T08:50:36.256Z,39.27
2023-08-15T08:53:38.445Z,38.35
2023-08-15T08:56:43.569Z,37.20
2023-08-15T08:59:46.877Z,38.93
2023-08-15T09:02:49.152Z,38.46
2023-08-15T09:05:51.758Z,37.49
2023-08-15T09:08:59.652Z,36.08
2023-08-15T09:12:01.727Z,34.92
2023-08-15T09:15:08.585Z,33.21
2023-08-15T09:18:10.813Z,33.38
2023-08-15T09:21:15.798Z,33.08
2023-08-15T09:24:17.885Z,34.11
2023-08-15T09:27:20.407Z,34.16
2023-08-15T09:30:23.161Z,31.85
2023-08-15T09:33:25.230Z,32.74
2023-08-15T09:36:32.211Z,31.15
2023-08-15T09:39:34.521Z,31.63
2023-08-15T09:42:37.418Z,30.53
2023-08-15T09:45:39.909Z,29.99
2023-08-15T09:48:43.319Z,31.70
2023-08-15T09:51:46.012Z,32.64
2023-08-15T09:54:48.546Z,31.90
2023-08-15T09:57:52.475Z,30.86
2023-08-15T10:00:56.121Z,30.66
2023-08-15T10:04:02.479Z,30.23
2023-08-15T10:07:05.959Z,29.16
2023-08-15T10:10:10.141Z,29.62
2023-08-15T10:13:12.901Z,30.60
2023-08-15T10:16:15.532Z,32.37
2023-08-15T10:19:18.852Z,31.31
2023-08-15T10:22:21.441Z,30.30
2023-08-15T10:25:23.821Z,31.79
2023-08-15T10:28:34.191Z,33.81
2023-08-15T10:31:38.257Z,32.64
2023-08-15T10:34:41.020Z,32.43
2023-08-15T10:37:46.892Z,31.65
2023-08-15T10:40:51.230Z,31.45
2023-08-15T10:43:55.957Z,30.91
2023-08-15T10:46:58.161Z,30.57
2023-08-15T10:50:00.533Z,30.38
2023-08-15T10:53:04.700Z,30.43
2023-08-15T10:56:06.865Z,30.25
2023-08-15T10:59:14.508Z,31.02
2023-08-15T11:02:16.677Z,28.26
2023-08-15T11:05:22.273Z,29.58
2023-08-15T11:08:24.341Z,29.97
2023-08-15T11:11:26.665Z,28.80
2023-08-15T11:14:28.860Z,28.20
2023-08-15T11:17:31.094Z,28.89
2023-08-15T11:20:33.989Z,28.97
2023-08-15T11:23:36.124Z,28.25
2023-08-15T11:26:38.381Z,29.89
2023-08-15T11:29:41.021Z,30.19
2023-08-15T11:32:43.721Z,29.75
2023-08-15T11:35:48.917Z,29.54
2023-08-15T11:38:51.107Z,27.96
2023-08-15T11:41:53.787Z,28.50
2023-08-15T11:45:19.299Z,29.57
2023-08-15T11:48:21.954Z,28.34
2023-08-15T11:51:24.096Z,28.81
2023-08-15T11:54:29.280Z,30.43
2023-08-15T11:57:35.917Z,31.71
2023-08-15T12:00:38.219Z,30.64
2023-08-15T12:03:41.307Z,29.12
2023-08-15T12:06:43.677Z,28.92
2023-08-15T12:09:46.080Z,28.00
2023-08-15T12:12:48.460Z,29.85
2023-08-15T12:15:51.088Z,28.54
2023-08-15T12:18:53.512Z,26.66
2023-08-15T12:21:55.622Z,26.02
2023-08-15T12:24:57.963Z,27.11
2023-08-15T12:28:00.202Z,29.67
2023-08-15T12:31:02.406Z,29.55
2023-08-15T12:34:04.723Z,30.08
2023-08-15T12:37:06.940Z,27.52
2023-08-15T12:40:18.071Z,26.55
2023-08-15T12:43:24.048Z,26.47
2023-08-15T12:46:26.218Z,28.60
2023-08-15T12:49:28.698Z,28.67
2023-08-15T12:52:31.483Z,30.46
2023-08-15T12:55:33.940Z,28.21
2023-08-15T12:58:36.086Z,28.92
2023-08-15T13:01:40.802Z,26.94
2023-08-15T13:04:43.305Z,28.29
2023-08-15T13:07:45.782Z,28.80
2023-08-15T13:10:48.827Z,28.82
2023-08-15T13:13:51.031Z,28.64
2023-08-15T13:16:53.156Z,27.90
2023-08-15T13:19:55.222Z,27.31
2023-08-15T13:22:57.416Z,28.57
2023-08-15T13:25:59.854Z,28.56
2023-08-15T13:29:03.267Z,28.13
2023-08-15T13:32:05.392Z,28.88
2023-08-15T13:35:07.793Z,28.97
2023-08-15T13:38:10.504Z,26.98
2023-08-15T13:41:13.967Z,26.48
2023-08-15T13:44:16.068Z,27.03
2023-08-15T13:47:18.185Z,29.01
2023-08-15T13:50:20.351Z,29.20
2023-08-15T13:53:22.558Z,30.85
2023-08-15T13:56:25.056Z,30.26
2023-08-15T13:59:27.367Z,30.62
2023-08-15T14:02:29.925Z,30.89
2023-08-15T14:05:32.551Z,30.87
2023-08-15T14:08:35.093Z,31.38
2023-08-15T14:11:37.210Z,30.15
2023-08-15T14:14:40.042Z,31.00
2023-08-15T14:17:42.140Z,30.98
2023-08-15T14:20:44.402Z,30.59
2023-08-15T14:23:47.989Z,30.44
2023-08-15T14:26:50.682Z,29.34
2023-08-15T14:29:52.896Z,29.87
2023-08-15T14:32:55.698Z,30.79
2023-08-15T14:35:58.046Z,30.56
2023-08-15T14:39:00.598Z,32.01
2023-08-15T14:42:02.807Z,32.02
2023-08-15T14:45:06.777Z,31.84
2023-08-15T14:48:08.957Z,31.41
2023-08-15T14:51:11.114Z,30.91
2023-08-15T14:54:13.859Z,31.41
2023-08-15T14:57:16.169Z,32.55
2023-08-15T15:00:18.489Z,32.08
2023-08-15T15:03:20.710Z,30.83
2023-08-15T15:06:22.981Z,32.00
2023-08-15T15:09:25.123Z,31.36
2023-08-15T15:12:28.072Z,31.17
2023-08-15T15:15:46.053Z,30.85
2023-08-15T15:18:52.354Z,31.06
2023-08-15T15:21:56.371Z,31.00
2023-08-15T15:24:58.839Z,32.97
2023-08-15T15:28:01.078Z,32.05
2023-08-15T15:31:03.232Z,32.25
2023-08-15T15:34:05.584Z,32.60
2023-08-15T15:37:07.810Z,33.04
2023-08-15T15:40:10.335Z,32.97
2023-08-15T15:43:12.973Z,34.72
2023-08-15T15:46:15.288Z,33.94
2023-08-15T15:49:18.428Z,33.27
2023-08-15T15:52:21.038Z,35.77
2023-08-15T15:55:23.634Z,36.15
2023-08-15T15:58:25.829Z,36.27
2023-08-15T16:01:28.037Z,37.08
2023-08-15T16:04:30.381Z,37.29
2023-08-15T16:07:32.707Z,36.61
2023-08-15T16:10:34.863Z,36.29
2023-08-15T16:13:37.169Z,36.84
2023-08-15T16:16:39.256Z,37.66
2023-08-15T16:19:41.466Z,38.03
2023-08-15T16:22:44.018Z,38.22
2023-08-15T16:25:47.360Z,39.57
2023-08-15T16:28:49.864Z,39.57
2023-08-15T16:31:51.976Z,39.52
2023-08-15T16:34:54.496Z,39.61
2023-08-15T16:37:57.095Z,40.70
2023-08-15T16:40:59.202Z,40.12
2023-08-15T16:44:01.290Z,40.72
2023-08-15T16:47:03.719Z,40.84
2023-08-15T16:50:06.508Z,41.62
2023-08-15T16:53:09.022Z,41.93
2023-08-15T16:56:11.404Z,42.42
2023-08-15T16:59:13.860Z,43.05
2023-08-15T17:02:16.275Z,42.91
2023-08-15T17:05:19.416Z,42.84
2023-08-15T17:08:21.471Z,43.09
2023-08-15T17:11:23.890Z,43.78
2023-08-15T17:14:26.411Z,44.00
2023-08-15T17:17:28.947Z,44.30
2023-08-15T17:20:31.599Z,44.27
2023-08-15T17:23:34.356Z,44.36
2023-08-15T17:26:36.757Z,45.21
2023-08-15T17:29:39.042Z,45.44
2023-08-15T17:32:41.762Z,45.36
2023-08-15T17:35:44.907Z,45.80
2023-08-15T17:38:47.133Z,48.49
2023-08-15T17:41:49.806Z,47.63
2023-08-15T17:44:55.774Z,49.94
2023-08-15T17:47:58.213Z,50.62
2023-08-15T17:51:01.088Z,50.77
2023-08-15T17:54:05.245Z,51.58
2023-08-15T17:57:07.715Z,52.28
2023-08-15T18:00:11.468Z,52.53
2023-08-15T18:03:15.250Z,53.06
2023-08-15T18:06:18.011Z,52.77
2023-08-15T18:09:20.448Z,52.98
2023-08-15T18:12:24.320Z,53.21
2023-08-15T18:15:26.740Z,55.07
2023-08-15T18:18:29.703Z,57.58
2023-08-15T18:21:32.291Z,57.32
2023-08-15T18:24:36.290Z,58.10
2023-08-15T18:27:38.736Z,58.56
2023-08-15T18:30:41.103Z,59.12
2023-08-15T18:33:43.750Z,59.66
2023-08-15T18:36:47.857Z,59.84
2023-08-15T18:39:50.599Z,60.56
2023-08-15T18:42:53.459Z,60.46
2023-08-15T18:45:56.287Z,60.73
2023-08-15T18:48:58.900Z,60.36
2023-08-15T18:52:01.345Z,60.04
2023-08-15T18:55:04.167Z,60.54
2023-08-15T18:58:07.902Z,61.03
2023-08-15T19:01:10.375Z,61.00
2023-08-15T19:04:12.767Z,61.29
2023-08-15T19:07:15.275Z,61.33
2023-08-15T19:10:17.874Z,60.97
2023-08-15T19:13:23.026Z,60.99
2023-08-15T19:16:26.168Z,60.75
2023-08-15T19:19:29.027Z,60.40
2023-08-15T19:22:31.236Z,60.26
2023-08-15T19:25:34.291Z,60.48
2023-08-15T19:28:37.242Z,60.03
2023-08-15T19:31:40.327Z,60.08
2023-08-15T19:34:51.248Z,59.56
2023-08-15T19:37:53.761Z,59.68
2023-08-15T19:40:56.316Z,59.70
2023-08-15T19:44:00.046Z,59.54
2023-08-15T19:47:02.892Z,59.14
2023-08-15T19:50:06.565Z,58.87
2023-08-15T19:53:09.547Z,58.51
2023-08-15T19:56:11.739Z,58.50
2023-08-15T19:59:14.554Z,58.29
2023-08-15T20:02:21.093Z,58.02
2023-08-15T20:05:23.803Z,57.91
2023-08-15T20:08:26.371Z,57.83
2023-08-15T20:11:29.311Z,57.94
2023-08-15T20:14:32.000Z,57.86
2023-08-15T20:17:34.869Z,57.50
2023-08-15T20:20:37.385Z,57.31
2023-08-15T20:23:39.646Z,56.50
2023-08-15T20:26:42.003Z,56.38
2023-08-15T20:29:45.024Z,56.44
2023-08-15T20:32:47.341Z,56.48
2023-08-15T20:35:49.750Z,56.90
2023-08-15T20:38:51.937Z,56.80
2023-08-15T20:41:54.157Z,56.99
2023-08-15T20:44:56.368Z,57.27
2023-08-15T20:47:58.643Z,57.52
2023-08-15T20:51:00.823Z,57.50
2023-08-15T20:54:03.427Z,57.73
2023-08-15T20:57:05.694Z,57.55
2023-08-15T21:00:08.405Z,57.56
2023-08-15T21:03:10.613Z,57.49
2023-08-15T21:06:13.203Z,57.40
2023-08-15T21:09:15.470Z,57.25
2023-08-15T21:12:17.740Z,57.37
2023-08-15T21:15:21.226Z,57.01
2023-08-15T21:18:23.839Z,56.83
2023-08-15T21:21:26.633Z,56.94
2023-08-15T21:24:28.817Z,56.76
2023-08-15T21:27:30.962Z,56.73
2023-08-15T21:30:36.425Z,56.70
2023-08-15T21:33:38.788Z,56.63
2023-08-15T21:36:41.020Z,56.76
2023-08-15T21:39:43.112Z,56.79
2023-08-15T21:42:45.243Z,57.12
2023-08-15T21:45:47.638Z,57.10
2023-08-15T21:48:49.853Z,57.18
2023-08-15T21:51:51.932Z,57.33
2023-08-15T21:54:54.105Z,57.52
2023-08-15T21:57:56.188Z,57.80
2023-08-15T22:00:58.374Z,58.05
2023-08-15T22:04:00.599Z,58.27
2023-08-15T22:07:02.884Z,58.34
2023-08-15T22:10:05.522Z,58.56
2023-08-15T22:13:08.307Z,58.80
2023-08-15T22:16:10.401Z,58.41
2023-08-15T22:19:31.075Z,58.20
2023-08-15T22:22:34.438Z,58.49
2023-08-15T22:25:36.785Z,59.09
2023-08-15T22:28:38.880Z,59.86
2023-08-15T22:31:40.967Z,59.52
2023-08-15T22:34:43.142Z,59.63
2023-08-15T22:37:46.010Z,59.85
2023-08-15T22:40:48.137Z,60.34
2023-08-15T22:43:50.232Z,60.44
2023-08-15T22:46:52.440Z,60.68
2023-08-15T22:49:54.506Z,61.12
2023-08-15T22:52:57.303Z,61.71
2023-08-15T22:56:01.581Z,62.67
2023-08-15T22:59:04.408Z,63.24
2023-08-15T23:02:06.575Z,64.14
2023-08-15T23:05:08.941Z,64.13
2023-08-15T23:08:11.143Z,64.68
2023-08-15T23:11:13.203Z,65.09
2023-08-15T23:14:15.378Z,65.38
2023-08-15T23:17:17.462Z,64.84
2023-08-15T23:20:19.578Z,64.61
2023-08-15T23:23:21.652Z,64.41
2023-08-15T23:26:23.769Z,64.42
2023-08-15T23:29:25.909Z,64.84
2023-08-15T23:32:28.145Z,65.77
2023-08-15T23:35:30.323Z,66.00
2023-08-15T23:38:32.449Z,66.46
2023-08-15T23:41:34.795Z,67.24
2023-08-15T23:44:36.954Z,67.93
2023-08-15T23:47:39.864Z,68.32
2023-08-15T23:50:41.960Z,67.69
2023-08-15T23:53:44.392Z,67.37
2023-08-15T23:56:46.557Z,67.32
2023-08-15T23:59:48.992Z,67.27
